Tiempo atmosférico en la estación meteorológica de Beasain, Gipuzkoa (245 m.)



Fecha
DESCASC
Temp. máxima en grados centígrados (hora)
DESCASC
Temp. mínima en grados centígrados (hora)
DESCASC
Temp. media en grados centígrados
DESCASC
Racha de viento máxima en m/sg (hora)
DESCASC
Velocidad máxima media en intervalos de 10 minutos(hora)
DESCASC
Precipitaciones diarias en mm
DESCASC
Precipitaciones de 00:00 a 06:00 en mm
DESCASC
Precipitaciones de 06:00 a 12:00 en mm
DESCASC
Precipitaciones de 12:00 a 18:00 en mm
DESCASC
Precipitaciones de 18:00 a 24:00 en mm
DESCASC
20-06-2018 32.3 (15:40) 15.6 (07:30) 23.9 8.33 (16:20) 5 (17:20) 0 0 0 0 0
19-06-2018 20.4 (16:20) 14.4 (07:00) 17.4 6.39 (17:50) 3.61 (17:40) 0.2 0 0.2 0 0
18-06-2018 20 (18:30) 11.6 (02:40) 15.8 6.67 (16:00) 3.06 (16:00) 0.6 0 0 0 0.6
17-06-2018 22.3 (17:00) 11.8 (04:20) 17 8.89 (17:50) 5 (19:10) 0.2 0 0.2 0 0
16-06-2018 21.6 (16:10) 14.2 (06:50) 17.9 7.22 (19:00) 4.17 (18:40) 0.2 0 0.2 0 0
15-06-2018 18.6 (16:50) 9.5 (05:30) 14.1 5.56 (15:40) 3.33 (15:40) 0.6 0 0 0 0.6
14-06-2018 20.6 (17:20) 10 (00:00) 15.3 7.5 (17:00) 3.89 (17:00) 0 0 0 0 0
13-06-2018 18.2 (17:10) 12.5 (23:59) 15.4 9.17 (04:50) 5.56 (08:10) 0 0 0 0 0
12-06-2018 18.5 (13:30) 13 (00:00) 15.8 13.33 (09:30) 5.83 (09:20) 8.6 1.4 7.2 0 0
11-06-2018 18.6 (11:10) 12.7 (07:20) 15.7 7.5 (13:10) 3.89 (13:00) 2.6 0 0.2 2.4 0
10-06-2018 23.1 (13:00) 10.7 (00:00) 16.9 6.39 (15:00) 3.89 (15:00) 13.8 0.2 0 12.6 1
09-06-2018 23.6 (18:00) 15.1 (00:00) 19.4 10.83 (19:20) 5 (19:40) 20 0 0 0.6 19.4
08-06-2018 25.6 (18:10) 13.5 (00:00) 19.6 13.06 (18:10) 5.28 (16:10) 0 0 0 0 0
07-06-2018 23.9 (15:10) 13.3 (00:00) 18.6 5.28 (17:40) 2.78 (17:40) 1.2 0 0 1.2 0
06-06-2018 20.7 (17:40) 8.9 (00:00) 14.8 6.67 (18:00) 3.61 (19:20) 0 0 0 0 0
05-06-2018 -- (--) -- (--) -- 7.78 (16:30) 3.89 (16:30) 4.4 1.4 2.6 0 0.4
04-06-2018 -- (--) -- (--) -- 5.83 (23:10) 2.78 (15:30) 12.6 0.2 0.4 0.4 11.6
03-06-2018 26.7 (13:50) 12.4 (00:00) 19.6 8.33 (15:50) 5 (16:40) 4.6 0 0 3.4 1.2
02-06-2018 26.3 (16:30) 15.2 (00:00) 20.7 8.33 (17:00) 2.78 (17:00) 0.2 0.2 0 0 0
01-06-2018 23.5 (14:30) 14.7 (00:00) 19.1 8.61 (15:40) 4.72 (15:40) 1 0 0 0 1
31-05-2018 20.1 (17:00) 13.5 (06:30) 16.8 6.11 (18:40) 3.33 (17:50) 0.4 0 0.2 0.2 0
30-05-2018 20 (14:20) 13.5 (00:00) 16.8 7.78 (15:20) 3.89 (15:30) 0.8 0.2 0.6 0 0
29-05-2018 22 (14:50) 12.7 (00:00) 17.3 7.22 (15:30) 4.44 (16:20) 5.2 0.2 0 3 2
28-05-2018 15.2 (14:40) 13.2 (00:00) 14.2 4.72 (15:40) 2.22 (15:40) 4.6 1.4 1.6 0 1.6
27-05-2018 17.2 (18:20) 12.1 (00:00) 14.7 5.83 (16:10) 3.06 (16:30) 0 0 0 0 0
26-05-2018 22.7 (15:10) 13.6 (00:00) 18.2 8.89 (15:40) 4.17 (16:20) 17.6 11.4 4.2 2 0
25-05-2018 21.3 (15:40) 14.8 (00:00) 18 5.83 (16:20) 3.33 (16:20) 2.6 0 1 0.2 1.4
24-05-2018 26.3 (14:40) 14 (00:00) 20.1 8.61 (18:40) 3.89 (16:20) 5 0.8 0 0 4.2
23-05-2018 18.3 (18:40) 9 (00:00) 13.6 3.33 (17:10) 1.67 (16:30) 2.6 0 0 2.6 0
22-05-2018 23.6 (16:20) 10.4 (00:00) 17 7.5 (17:30) 3.89 (17:50) 0 0 0 0 0

Gráficas

Temp. máximas Temp. mínimas Temp. medias Precipitaciones Rachas de viento máximas Velocidades máximas media en intervalos de 10 minutos

Datos horarios

Fecha y hora oficial Temperatura (ºC) Velocidad del viento (km/h) Dirección del viento Racha (km/h) Dirección de racha Precipitación (mm) Presión (hPa) Tendencia (hPa) Humedad (%)
2018-06-20 23:00:00 19.9 5 Este 13 Sudeste 0 -- -- 91
2018-06-20 22:00:00 20.8 7 Sudeste 13 Sudeste 0 -- -- 87
2018-06-20 21:00:00 22.6 6 Sudeste 12 Sudeste 0 -- -- 81
2018-06-20 20:00:00 25.5 6 Noroeste 25 Noroeste 0 -- -- 72
2018-06-20 19:00:00 27.8 14 Norte 29 Noroeste 0 -- -- 65
2018-06-20 18:00:00 29 14 Norte 30 Norte 0 -- -- 61
2018-06-20 17:00:00 29.9 14 Norte 30 Noroeste 0 -- -- 60
2018-06-20 16:00:00 32 9 Norte 18 Noroeste 0 -- -- 51
2018-06-20 15:00:00 31.9 5 Sudeste 15 Sudeste 0 -- -- 42
2018-06-20 14:00:00 30.9 8 Sudeste 18 Este 0 -- -- 48
2018-06-20 13:00:00 30 5 Sur 14 Sudeste 0 -- -- 51
2018-06-20 12:00:00 27.9 3 Sudoeste 8 Este 0 -- -- 59
2018-06-20 11:00:00 24.8 3 Sudeste 13 Este 0 -- -- 75
2018-06-20 10:00:00 22 3 Sudeste 7 Sudeste 0 -- -- 83
2018-06-20 09:00:00 18.7 0 Calma 4 Sudeste 0 -- -- 90
2018-06-20 08:00:00 15.6 0 Calma 4 Noroeste 0 -- -- 99
2018-06-20 07:00:00 15.8 0 Calma 9 Noroeste 0 -- -- 97
2018-06-20 06:00:00 16.8 3 Norte 7 Noroeste 0 -- -- 97
2018-06-20 05:00:00 17.2 0 Calma 3 Noroeste 0 -- -- 97
2018-06-20 04:00:00 17.3 0 Calma 2 Noroeste 0 -- -- 96
2018-06-20 03:00:00 17.3 0 Calma 3 Noroeste 0 -- -- 96
2018-06-20 02:00:00 17.4 0 Calma 0 Calma 0 -- -- 95
2018-06-20 01:00:00 17.5 0 Calma 3 Norte 0 -- -- 95
2018-06-20 00:00:00 17.7 0 Calma 4 Norte 0 -- -- 93
2018-06-19 23:00:00 17.8 3 Noroeste 6 Noroeste 0 -- -- 93
2018-06-19 22:00:00 18 2 Noroeste 13 Norte 0 -- -- 91
2018-06-19 21:00:00 18.4 6 Noroeste 14 Norte 0 -- -- 89
2018-06-19 20:00:00 19 8 Norte 13 Norte 0 -- -- 86
2018-06-19 19:00:00 19.6 8 Norte 19 Norte 0 -- -- 85
2018-06-19 18:00:00 19.6 11 Norte 23 Norte 0 -- -- 84
2018-06-19 17:00:00 20.2 9 Norte 18 Norte 0 -- -- 82
2018-06-19 16:00:00 20 8 Norte 20 Norte 0 -- -- 83
2018-06-19 15:00:00 19.5 8 Noroeste 17 Noroeste 0 -- -- 83
2018-06-19 14:00:00 19.4 8 Noroeste 14 Noroeste 0 -- -- 83
2018-06-19 13:00:00 18.5 3 Noroeste 6 Norte 0 -- -- 84
2018-06-19 12:00:00 17.5 0 Calma 9 Sudeste 0 -- -- 90
2018-06-19 11:00:00 16.5 3 Sudoeste 8 Sudoeste 0 -- -- 94
2018-06-19 10:00:00 15.5 3 Sur 5 Sur 0 -- -- 97
2018-06-19 09:00:00 15.1 0 Calma 4 Sudeste 0.2 -- -- 99
2018-06-19 08:00:00 14.5 4 Sudeste 9 Este 0 -- -- 99
2018-06-19 07:00:00 14.4 2 Noroeste 7 Norte 0 -- -- 98
2018-06-19 06:00:00 14.7 2 Norte 9 Noroeste 0 -- -- 94
2018-06-19 05:00:00 14.9 0 Calma 13 Norte 0 -- -- 93
2018-06-19 04:00:00 14.9 8 Norte 16 Nordeste 0 -- -- 93
2018-06-19 03:00:00 15 6 Noroeste 15 Norte 0 -- -- 94
2018-06-19 02:00:00 15 8 Norte 16 Norte 0 -- -- 97
2018-06-19 01:00:00 14.7 3 Norte 10 Noroeste 0 -- -- 99
2018-06-19 00:00:00 15.1 6 Noroeste 10 Noroeste 0.2 -- -- 99
2018-06-18 23:00:00 15.5 5 Norte 13 Norte 0.2 -- -- 98
2018-06-18 22:00:00 16 8 Norte 15 Norte 0 -- -- 96
2018-06-18 21:00:00 16.8 6 Norte 15 Noroeste 0 -- -- 94
2018-06-18 20:00:00 17.6 4 Noroeste 14 Noroeste 0.2 -- -- 93
2018-06-18 19:00:00 19.6 8 Noroeste 15 Noroeste 0 -- -- 79
2018-06-18 18:00:00 19.5 8 Norte 16 Noroeste 0 -- -- 78
2018-06-18 17:00:00 19.4 9 Noroeste 21 Noroeste 0 -- -- 79
2018-06-18 16:00:00 19.8 11 Noroeste 24 Noroeste 0 -- -- 80
2018-06-18 15:00:00 19.1 10 Noroeste 21 Noroeste 0 -- -- 82
2018-06-18 14:00:00 19.7 9 Noroeste 19 Noroeste 0 -- -- 80
2018-06-18 13:00:00 17.8 4 Noroeste 11 Noroeste 0 -- -- 90
2018-06-18 12:00:00 16.2 3 Norte 6 Oeste 0 -- -- 91
2018-06-18 11:00:00 15.4 3 Noroeste 8 Sudeste 0 -- -- 90
2018-06-18 10:00:00 15.2 3 Sur 9 Sudeste 0 -- -- 90
2018-06-18 09:00:00 14.2 2 Sudeste 7 Sudeste 0 -- -- 94
2018-06-18 08:00:00 13.3 0 Calma 2 Sur 0 -- -- 97
2018-06-18 07:00:00 12.6 2 Norte 4 Sudeste 0 -- -- 98
2018-06-18 06:00:00 12.2 3 Sudeste 6 Sur 0 -- -- 99
2018-06-18 05:00:00 12.2 0 Calma 3 Nordeste 0 -- -- 99
2018-06-18 04:00:00 11.7 0 Calma 4 Sudeste 0 -- -- 99
2018-06-18 03:00:00 11.7 0 Calma 5 Este 0 -- -- 99
2018-06-18 02:00:00 12.1 0 Calma 5 Noroeste 0 -- -- 97
2018-06-18 01:00:00 12.6 0 Calma 8 Noroeste 0 -- -- 95
2018-06-18 00:00:00 13.4 0 Calma 6 Norte 0 -- -- 93
2018-06-17 23:00:00 14.2 4 Norte 10 Norte 0 -- -- 90
2018-06-17 22:00:00 15.7 5 Norte 10 Norte 0 -- -- 84
2018-06-17 21:00:00 18.1 7 Norte 16 Noroeste 0 -- -- 74
2018-06-17 20:00:00 20.4 6 Noroeste 30 Norte 0 -- -- 66
2018-06-17 19:00:00 20.4 17 Norte 28 Norte 0 -- -- 65
2018-06-17 18:00:00 21.5 12 Norte 32 Norte 0 -- -- 63
2018-06-17 17:00:00 22.3 10 Noroeste 23 Noroeste 0 -- -- 66
2018-06-17 16:00:00 21.6 14 Noroeste 23 Norte 0 -- -- 61
2018-06-17 15:00:00 21.4 12 Norte 24 Norte 0 -- -- 61
2018-06-17 14:00:00 20.5 9 Noroeste 17 Noroeste 0 -- -- 69
2018-06-17 13:00:00 19.5 5 Noroeste 18 Norte 0 -- -- 67
2018-06-17 12:00:00 18 7 Norte 13 Noroeste 0 -- -- 74
2018-06-17 11:00:00 16.6 4 Sur 6 Sudoeste 0 -- -- 91
2018-06-17 10:00:00 14.4 0 Calma 4 Sudeste 0.2 -- -- 99
2018-06-17 09:00:00 13.7 2 Sudeste 6 Este 0 -- -- 98
2018-06-17 08:00:00 12.9 0 Calma 3 Sur 0 -- -- 99
2018-06-17 07:00:00 12.3 0 Calma 2 Noroeste 0 -- -- 99
2018-06-17 06:00:00 12.1 0 Calma 3 Sudeste 0 -- -- 99
2018-06-17 05:00:00 11.8 0 Calma 5 Sudeste 0 -- -- 99
2018-06-17 04:00:00 11.9 0 Calma 4 Sudeste 0 -- -- 98
2018-06-17 03:00:00 12.1 0 Calma 4 Noroeste 0 -- -- 97
2018-06-17 02:00:00 12.7 3 Noroeste 5 Noroeste 0 -- -- 95
2018-06-17 01:00:00 13.7 0 Calma 5 Norte 0 -- -- 91
2018-06-17 00:00:00 14.9 4 Noroeste 8 Norte 0 -- -- 88
2018-06-16 23:00:00 15.5 5 Norte 10 Norte 0 -- -- 84
2018-06-16 22:00:00 15.7 8 Norte 15 Norte 0 -- -- 82
2018-06-16 21:00:00 17 4 Noroeste 21 Noroeste 0 -- -- 76
2018-06-16 20:00:00 18.1 7 Noroeste 24 Norte 0 -- -- 73
2018-06-16 19:00:00 20.1 13 Norte 26 Noroeste 0 -- -- 66
2018-06-16 18:00:00 21.2 11 Norte 24 Norte 0 -- -- 61
2018-06-16 17:00:00 21.4 10 Noroeste 23 Noroeste 0 -- -- 63
2018-06-16 16:00:00 21.4 12 Noroeste 24 Noroeste 0 -- -- 59
2018-06-16 15:00:00 20.4 8 Norte 21 Noroeste 0 -- -- 68
2018-06-16 14:00:00 19 8 Noroeste 22 Noroeste 0 -- -- 77
2018-06-16 13:00:00 17.1 10 Noroeste 23 Noroeste 0 -- -- 82
2018-06-16 12:00:00 16.9 14 Noroeste 26 Noroeste 0 -- -- 85
2018-06-16 11:00:00 16.8 11 Noroeste 21 Norte 0 -- -- 86
2018-06-16 10:00:00 16.2 8 Noroeste 15 Norte 0 -- -- 90
2018-06-16 09:00:00 15.3 4 Noroeste 9 Oeste 0 -- -- 96
2018-06-16 08:00:00 14.5 2 Sudoeste 9 Noroeste 0.2 -- -- 100
2018-06-16 07:00:00 14.2 2 Noroeste 14 Norte 0 -- -- 99
2018-06-16 06:00:00 14.8 6 Norte 14 Norte 0 -- -- 94
2018-06-16 05:00:00 14.6 8 Norte 12 Norte 0 -- -- 95
2018-06-16 04:00:00 14.7 5 Norte 10 Norte 0 -- -- 97
2018-06-16 03:00:00 14.4 2 Norte 12 Noroeste 0 -- -- 98
2018-06-16 02:00:00 15.1 7 Norte 14 Norte 0 -- -- 98
2018-06-16 01:00:00 15.3 8 Norte 12 Noroeste 0 -- -- 99
2018-06-16 00:00:00 15.7 3 Oeste 6 Noroeste 0.2 -- -- 99
2018-06-15 23:00:00 15.9 0 Calma 4 Norte 0.4 -- -- 99
2018-06-15 22:00:00 16.2 3 Norte 7 Nordeste 0 -- -- 96
2018-06-15 21:00:00 16.6 4 Norte 7 Norte 0 -- -- 92
2018-06-15 20:00:00 16.7 4 Noroeste 7 Noroeste 0 -- -- 92
2018-06-15 19:00:00 17 5 Noroeste 10 Norte 0 -- -- 93
2018-06-15 18:00:00 17.6 6 Norte 15 Noroeste 0 -- -- 85
2018-06-15 17:00:00 18.5 10 Noroeste 19 Noroeste 0 -- -- 82
2018-06-15 16:00:00 18.3 6 Noroeste 20 Noroeste 0 -- -- 81
2018-06-15 15:00:00 18 6 Noroeste 10 Oeste 0 -- -- 82
2018-06-15 14:00:00 17.6 3 Sur 9 Sudeste 0 -- -- 78
2018-06-15 13:00:00 16.8 2 Sudeste 7 Este 0 -- -- 79
2018-06-15 12:00:00 16 2 Sudeste 5 Este 0 -- -- 84
2018-06-15 11:00:00 14.3 3 Sudeste 5 Sur 0 -- -- 90
2018-06-15 10:00:00 12.8 2 Oeste 4 Sudeste 0 -- -- 97
2018-06-15 09:00:00 11.3 0 Calma 4 Sudeste 0 -- -- 100
2018-06-15 08:00:00 10.4 0 Calma 4 Noroeste 0 -- -- 100
2018-06-15 07:00:00 9.7 0 Calma 4 Noroeste 0 -- -- 100
2018-06-15 06:00:00 9.5 2 Sudeste 4 Sudeste 0 -- -- 100
2018-06-15 05:00:00 9.7 3 Sudeste 4 Noroeste 0 -- -- 99
2018-06-15 04:00:00 10.1 0 Calma 4 Noroeste 0 -- -- 99
2018-06-15 03:00:00 10.5 0 Calma 4 Noroeste 0 -- -- 98
2018-06-15 02:00:00 11 0 Calma 5 Noroeste 0 -- -- 96
2018-06-15 01:00:00 11.6 0 Calma 4 Noroeste 0 -- -- 94
2018-06-15 00:00:00 12.5 2 Noroeste 9 Noroeste 0 -- -- 92
2018-06-14 23:00:00 13.8 0 Calma 7 Norte 0 -- -- 88
2018-06-14 22:00:00 15.7 5 Norte 16 Norte 0 -- -- 78
2018-06-14 21:00:00 17.7 7 Norte 14 Noroeste 0 -- -- 72
2018-06-14 20:00:00 19.9 6 Noroeste 21 Norte 0 -- -- 64
2018-06-14 19:00:00 20.4 8 Noroeste 22 Norte 0 -- -- 63
2018-06-14 18:00:00 19.9 12 Noroeste 22 Noroeste 0 -- -- 65
2018-06-14 17:00:00 20.2 14 Noroeste 27 Noroeste 0 -- -- 61
2018-06-14 16:00:00 18.8 5 Noroeste 19 Norte 0 -- -- 71
2018-06-14 15:00:00 18.2 5 Norte 16 Noroeste 0 -- -- 68
2018-06-14 14:00:00 18.2 6 Noroeste 23 Norte 0 -- -- 68
2018-06-14 13:00:00 16.5 11 Norte 21 Norte 0 -- -- 71
2018-06-14 12:00:00 15.7 4 Noroeste 10 Noroeste 0 -- -- 80
2018-06-14 11:00:00 15.4 4 Sudeste 7 Sudeste 0 -- -- 86
2018-06-14 10:00:00 13.6 2 Sur 6 Sudeste 0 -- -- 92
2018-06-14 09:00:00 12 3 Sudeste 6 Sudeste 0 -- -- 99
2018-06-14 08:00:00 11.2 0 Calma 3 Norte 0 -- -- 100
2018-06-14 07:00:00 10.6 0 Calma 4 Sudeste 0 -- -- 100
2018-06-14 06:00:00 10.4 3 Sudeste 5 Sudeste 0 -- -- 100
2018-06-14 05:00:00 10.4 0 Calma 7 Sudeste 0 -- -- 100
2018-06-14 04:00:00 10.2 3 Noroeste 5 Noroeste 0 -- -- 99
2018-06-14 03:00:00 10.5 3 Noroeste 5 Noroeste 0 -- -- 99
2018-06-14 02:00:00 10.8 3 Sudeste 6 Sudeste 0 -- -- 98
2018-06-14 01:00:00 11.5 0 Calma 5 Este 0 -- -- 96
2018-06-14 00:00:00 12.5 3 Sudeste 5 Sudeste 0 -- -- 92
2018-06-13 23:00:00 13.7 2 Norte 10 Noroeste 0 -- -- 87
2018-06-13 22:00:00 14.9 5 Norte 15 Norte 0 -- -- 79
2018-06-13 21:00:00 16.2 6 Norte 17 Norte 0 -- -- 75
2018-06-13 20:00:00 16.8 8 Norte 30 Norte 0 -- -- 72
2018-06-13 19:00:00 16.9 11 Norte 26 Norte 0 -- -- 70
2018-06-13 18:00:00 18 10 Norte 31 Norte 0 -- -- 64
2018-06-13 17:00:00 17.5 12 Norte 26 Norte 0 -- -- 67
2018-06-13 16:00:00 17.9 11 Norte 32 Norte 0 -- -- 67
2018-06-13 15:00:00 17.1 9 Norte 22 Norte 0 -- -- 71
2018-06-13 14:00:00 15.6 11 Norte 27 Norte 0 -- -- 77
2018-06-13 13:00:00 16.2 9 Norte 24 Noroeste 0 -- -- 75
2018-06-13 12:00:00 15.7 10 Norte 19 Norte 0 -- -- 78
2018-06-13 11:00:00 14.7 6 Noroeste 20 Noroeste 0 -- -- 85
2018-06-13 10:00:00 14.9 9 Noroeste 22 Noroeste 0 -- -- 83
2018-06-13 09:00:00 15 10 Noroeste 31 Norte 0 -- -- 81
2018-06-13 08:00:00 15.1 15 Norte 33 Norte 0 -- -- 80
2018-06-13 07:00:00 14.8 12 Noroeste 25 Noroeste 0 -- -- 84
2018-06-13 06:00:00 15 15 Noroeste 28 Noroeste 0 -- -- 83
2018-06-13 05:00:00 15 16 Noroeste 33 Oeste 0 -- -- 83
2018-06-13 04:00:00 15.1 13 Noroeste 27 Noroeste 0 -- -- 83
2018-06-13 03:00:00 14.9 9 Noroeste 21 Norte 0 -- -- 83
2018-06-13 02:00:00 15.1 5 Sudoeste 18 Norte 0 -- -- 83
2018-06-13 01:00:00 15.3 8 Oeste 25 Noroeste 0 -- -- 84
2018-06-13 00:00:00 15.2 11 Noroeste 24 Noroeste 0 -- -- 85
2018-06-12 23:00:00 15.3 10 Noroeste 35 Noroeste 0 -- -- 83
2018-06-12 22:00:00 15.9 13 Noroeste 30 Noroeste 0 -- -- 78
2018-06-12 21:00:00 16.4 11 Noroeste 30 Noroeste 0 -- -- 75
2018-06-12 20:00:00 16.8 10 Noroeste 38 Noroeste 0 -- -- 75
2018-06-12 19:00:00 17.2 16 Noroeste 38 Noroeste 0 -- -- 74
2018-06-12 18:00:00 17.5 13 Noroeste 35 Noroeste 0 -- -- 72
2018-06-12 17:00:00 17 18 Noroeste 36 Oeste 0 -- -- 75
2018-06-12 16:00:00 17.3 17 Noroeste 41 Noroeste 0 -- -- 74
2018-06-12 15:00:00 17.6 14 Norte 41 Norte 0 -- -- 72
2018-06-12 14:00:00 18.4 8 Norte 39 Norte 0 -- -- 72
2018-06-12 13:00:00 18 12 Noroeste 42 Oeste 0 -- -- 76
2018-06-12 12:00:00 16.5 18 Noroeste 41 Noroeste 0 -- -- 83
2018-06-12 11:00:00 15.4 11 Noroeste 30 Norte 0 -- -- 88
2018-06-12 10:00:00 14.5 15 Noroeste 48 Norte 1.2 -- -- 92
2018-06-12 09:00:00 14.9 15 Noroeste 38 Norte 2.4 -- -- 95
2018-06-12 08:00:00 13.9 2 Este 12 Norte 0.6 -- -- 100
2018-06-12 07:00:00 13.5 0 Calma 4 Oeste 3 -- -- 100
2018-06-12 06:00:00 13.4 2 Noroeste 5 Noroeste 1 -- -- 100
2018-06-12 05:00:00 13.3 3 Norte 5 Norte 0.4 -- -- 100
2018-06-12 04:00:00 13.2 2 Noroeste 5 Oeste 0 -- -- 100
2018-06-12 03:00:00 13.1 3 Sudeste 6 Noroeste 0 -- -- 100
2018-06-12 02:00:00 13.1 3 Sudeste 6 Sudeste 0 -- -- 100
2018-06-12 01:00:00 13.2 0 Calma 3 Sur 0 -- -- 99
2018-06-12 00:00:00 13 0 Calma 4 Noroeste 0 -- -- 98
2018-06-11 23:00:00 13.1 3 Oeste 8 Noroeste 0 -- -- 97
2018-06-11 22:00:00 14.4 4 Norte 6 Norte 0 -- -- 93
2018-06-11 21:00:00 16 5 Norte 13 Norte 0 -- -- 90
2018-06-11 20:00:00 17.7 3 Noroeste 5 Sur 0 -- -- 83
2018-06-11 19:00:00 17.8 2 Noroeste 5 Sudeste 0 -- -- 81
2018-06-11 18:00:00 16.4 2 Noroeste 8 Este 0 -- -- 92
2018-06-11 17:00:00 16.8 3 Sur 15 Sur 0 -- -- 84
2018-06-11 16:00:00 16.6 4 Noroeste 13 Sudoeste 0 -- -- 89
2018-06-11 15:00:00 16.8 4 Oeste 22 Noroeste 0 -- -- 85
2018-06-11 14:00:00 15.7 4 Norte 27 Norte 2.2 -- -- 91
2018-06-11 13:00:00 16.1 14 Norte 26 Norte 0.2 -- -- 85
2018-06-11 12:00:00 17.9 10 Noroeste 22 Norte 0 -- -- 78
2018-06-11 11:00:00 18.2 4 Noroeste 13 Oeste 0.2 -- -- 77
2018-06-11 10:00:00 15.6 2 Oeste 6 Nordeste 0 -- -- 90
2018-06-11 09:00:00 13.2 0 Calma 6 Sur 0 -- -- 99
2018-06-11 08:00:00 12.9 2 Sudeste 6 Este 0 -- -- 100
2018-06-11 07:00:00 12.8 2 Sudeste 5 Sudoeste 0 -- -- 100
2018-06-11 06:00:00 13.1 4 Sudeste 6 Este 0 -- -- 100
2018-06-11 05:00:00 13.2 0 Calma 6 Noroeste 0 -- -- 100
2018-06-11 04:00:00 13.2 3 Norte 7 Noroeste 0 -- -- 100
2018-06-11 03:00:00 13.1 3 Noroeste 9 Noroeste 0 -- -- 100
2018-06-11 02:00:00 13.2 0 Calma 10 Noroeste 0 -- -- 100
2018-06-11 01:00:00 13.3 3 Noroeste 6 Norte 0 -- -- 100
2018-06-11 00:00:00 13.5 3 Norte 5 Norte 0.2 -- -- 100
2018-06-10 23:00:00 13.7 3 Norte 12 Norte 0 -- -- 99
2018-06-10 22:00:00 14.2 4 Norte 6 Noroeste 0 -- -- 98
2018-06-10 21:00:00 15.2 4 Noroeste 8 Norte 0.4 -- -- 97
2018-06-10 20:00:00 15.4 4 Noroeste 8 Norte 0 -- -- 98
2018-06-10 19:00:00 15.1 3 Norte 18 Norte 0.4 -- -- 96
2018-06-10 18:00:00 15.7 10 Norte 18 Noroeste 1.8 -- -- 94
2018-06-10 17:00:00 16.5 6 Noroeste 22 Norte 10.8 -- -- 95
2018-06-10 16:00:00 19.5 10 Norte 22 Noroeste 0 -- -- 76
2018-06-10 15:00:00 21.3 14 Norte 23 Norte 0 -- -- 66
2018-06-10 14:00:00 22 3 Norte 10 Sudeste 0 -- -- 61
2018-06-10 13:00:00 23.1 5 Sudeste 14 Sur 0 -- -- 57
2018-06-10 12:00:00 21.6 3 Nordeste 6 Este 0 -- -- 59
2018-06-10 11:00:00 19.6 3 Sudeste 5 Sudeste 0 -- -- 76
2018-06-10 10:00:00 15.9 5 Sudeste 9 Este 0 -- -- 92
2018-06-10 09:00:00 12.9 4 Este 7 Nordeste 0 -- -- 100
2018-06-10 08:00:00 11 2 Sudeste 4 Este 0 -- -- 100
2018-06-10 07:00:00 10.8 0 Calma 5 Noroeste 0 -- -- 100
2018-06-10 06:00:00 11 2 Noroeste 8 Noroeste 0.2 -- -- 100
2018-06-10 05:00:00 11.4 3 Norte 6 Norte 0 -- -- 100
2018-06-10 04:00:00 12.6 3 Norte 6 Noroeste 0 -- -- 100
2018-06-10 03:00:00 12.9 3 Norte 7 Noroeste 0 -- -- 100
2018-06-10 02:00:00 13.7 2 Norte 10 Norte 0 -- -- 100
2018-06-10 01:00:00 14.6 3 Norte 6 Oeste 0 -- -- 99
2018-06-10 00:00:00 15.4 2 Norte 8 Norte 0.2 -- -- 100
2018-06-09 23:00:00 15.8 2 Oeste 13 Noroeste 8.2 -- -- 99
2018-06-09 22:00:00 15.9 5 Oeste 14 Noroeste 1.8 -- -- 98
2018-06-09 21:00:00 16.2 3 Noroeste 16 Noroeste 0.2 -- -- 98
2018-06-09 20:00:00 16.5 14 Norte 39 Noroeste 9 -- -- 95
2018-06-09 19:00:00 21 5 Oeste 14 Sur 0 -- -- 77
2018-06-09 18:00:00 23.6 6 Noroeste 19 Sur 0 -- -- 69
2018-06-09 17:00:00 21.9 9 Sur 17 Sudoeste 0.2 -- -- 72
2018-06-09 16:00:00 19 4 Sur 10 Sudoeste 0 -- -- 89
2018-06-09 15:00:00 18.5 2 Norte 10 Sur 0.2 -- -- 90
2018-06-09 14:00:00 19.2 4 Sudeste 14 Sur 0.2 -- -- 80
2018-06-09 13:00:00 20.6 5 Sur 14 Sudeste 0 -- -- 73
2018-06-09 12:00:00 20.8 2 Este 10 Norte 0 -- -- 70
2018-06-09 11:00:00 20.1 4 Nordeste 8 Noroeste 0 -- -- 66
2018-06-09 10:00:00 18 0 Calma 8 Sudeste 0 -- -- 85
2018-06-09 09:00:00 17.1 2 Sudeste 5 Noroeste 0 -- -- 83
2018-06-09 08:00:00 15.1 4 Noroeste 6 Noroeste 0 -- -- 90
2018-06-09 07:00:00 15.2 0 Calma 5 Norte 0 -- -- 89
2018-06-09 06:00:00 15.8 4 Noroeste 7 Oeste 0 -- -- 88
2018-06-09 05:00:00 16.9 4 Norte 7 Noroeste 0 -- -- 84
2018-06-09 04:00:00 17.8 3 Nordeste 7 Norte 0 -- -- 78
2018-06-09 03:00:00 19.1 3 Norte 22 Sudeste 0 -- -- 76
2018-06-09 02:00:00 20.4 12 Sudeste 24 Sudeste 0 -- -- 68
2018-06-09 01:00:00 18.9 3 Sudoeste 26 Sudeste 0 -- -- 75
2018-06-09 00:00:00 20 5 Sur 15 Sur 0 -- -- 70
2018-06-08 23:00:00 21.1 6 Nordeste 20 Este 0 -- -- 67
2018-06-08 22:00:00 22 5 Norte 27 Sur 0 -- -- 63
2018-06-08 21:00:00 23.4 8 Sudeste 27 Sur 0 -- -- 57
2018-06-08 20:00:00 24.5 14 Sudeste 28 Sudeste 0 -- -- 53
2018-06-08 19:00:00 24.4 11 Sudeste 47 Sudeste 0 -- -- 53
2018-06-08 18:00:00 25.5 15 Sur 39 Sudeste 0 -- -- 51
2018-06-08 17:00:00 25.2 15 Sudeste 35 Sudeste 0 -- -- 51
2018-06-08 16:00:00 24.5 16 Sudeste 33 Sudeste 0 -- -- 54
2018-06-08 15:00:00 24.4 15 Sudeste 33 Sudeste 0 -- -- 55
2018-06-08 14:00:00 23.8 12 Sudeste 25 Sudeste 0 -- -- 56
2018-06-08 13:00:00 23 12 Sur 27 Sur 0 -- -- 61
2018-06-08 12:00:00 20.7 9 Sudeste 18 Sudeste 0 -- -- 73
2018-06-08 11:00:00 18 3 Sudeste 6 Sur 0 -- -- 92
2018-06-08 10:00:00 16 3 Noroeste 6 Noroeste 0 -- -- 99
2018-06-08 09:00:00 14.5 0 Calma 6 Noroeste 0 -- -- 100
2018-06-08 08:00:00 13.9 3 Sudeste 6 Sudeste 0 -- -- 100
2018-06-08 07:00:00 13.5 3 Noroeste 8 Noroeste 0 -- -- 100
2018-06-08 06:00:00 13.6 2 Sudeste 4 Este 0 -- -- 100
2018-06-08 05:00:00 13.7 3 Noroeste 5 Noroeste 0 -- -- 100
2018-06-08 04:00:00 13.6 0 Calma 6 Noroeste 0 -- -- 100
2018-06-08 03:00:00 13.9 0 Calma 4 Este 0 -- -- 100
2018-06-08 02:00:00 13.8 0 Calma 5 Noroeste 0 -- -- 100
2018-06-08 01:00:00 14.3 0 Calma 6 Noroeste 0 -- -- 99
2018-06-08 00:00:00 14.7 3 Noroeste 5 Noroeste 0 -- -- 98
2018-06-07 23:00:00 15.3 3 Norte 6 Noroeste 0 -- -- 97
2018-06-07 22:00:00 16.3 4 Norte 7 Norte 0 -- -- 94
2018-06-07 21:00:00 18.5 5 Noroeste 6 Noroeste 0 -- -- 91
2018-06-07 20:00:00 19.5 3 Oeste 12 Sur 0 -- -- 89
2018-06-07 19:00:00 20 5 Sur 9 Sur 0 -- -- 81
2018-06-07 18:00:00 18.4 7 Noroeste 19 Norte 1.2 -- -- 91
2018-06-07 17:00:00 22.6 5 Sudoeste 12 Sudeste 0 -- -- 71
2018-06-07 16:00:00 23.5 5 Sudeste 12 Sur 0 -- -- 58
2018-06-07 15:00:00 23.3 0 Calma 12 Norte 0 -- -- 57
2018-06-07 14:00:00 23.4 6 Noroeste 13 Norte 0 -- -- 56
2018-06-07 13:00:00 22.9 5 Sudeste 13 Sudeste 0 -- -- 58
2018-06-07 12:00:00 20.2 4 Nordeste 7 Este 0 -- -- 69
2018-06-07 11:00:00 18.9 3 Sudeste 6 Norte 0 -- -- 74
2018-06-07 10:00:00 17.8 3 Oeste 10 Sudeste 0 -- -- 82
2018-06-07 09:00:00 15.5 3 Sudeste 5 Sudeste 0 -- -- 95
2018-06-07 08:00:00 14.2 2 Noroeste 5 Norte 0 -- -- 98
2018-06-07 07:00:00 13.6 0 Calma 6 Este 0 -- -- 99
2018-06-07 06:00:00 13.6 2 Nordeste 6 Este 0 -- -- 98
2018-06-07 05:00:00 13.6 0 Calma 6 Noroeste 0 -- -- 97
2018-06-07 04:00:00 13.8 0 Calma 2 Oeste 0 -- -- 97
2018-06-07 03:00:00 13.7 0 Calma 4 Sudeste 0 -- -- 96
2018-06-07 02:00:00 13.7 2 Noroeste 4 Norte 0 -- -- 96
2018-06-07 01:00:00 13.6 2 Norte 7 Noroeste 0 -- -- 95
2018-06-07 00:00:00 13.5 2 Norte 5 Noroeste 0 -- -- 94
2018-06-06 23:00:00 14.6 4 Noroeste 6 Noroeste 0 -- -- 91
2018-06-06 22:00:00 15.7 2 Noroeste 6 Nordeste 0 -- -- 85
2018-06-06 21:00:00 16.7 3 Norte 15 Noroeste 0 -- -- 79
2018-06-06 20:00:00 18 8 Norte 24 Norte 0 -- -- 73
2018-06-06 19:00:00 20 7 Norte 22 Nordeste 0 -- -- 67
2018-06-06 18:00:00 20.5 13 Noroeste 24 Noroeste 0 -- -- 67
2018-06-06 17:00:00 19.6 10 Noroeste 22 Noroeste 0 -- -- 68
2018-06-06 16:00:00 19.2 3 Sur 15 Sudeste 0 -- -- 67
2018-06-06 15:00:00 18.2 2 Sudeste 11 Sur 0 -- -- 72
2018-06-06 14:00:00 17.9 6 Sur 12 Sudeste 0 -- -- 71
2018-06-06 13:00:00 16.8 4 Sudeste 7 Sur 0 -- -- 74
2018-06-06 12:00:00 16.3 3 Nordeste 14 Noroeste 0 -- -- 74
2018-06-06 11:00:00 15.8 5 Norte 10 Norte 0 -- -- 77
2018-06-06 10:00:00 13.4 3 Sudeste 9 Sudeste 0 -- -- 97
2018-06-06 09:00:00 10.9 4 Sudeste 8 Sudeste 0 -- -- 100
2018-06-06 08:00:00 9.8 3 Noroeste 4 Noroeste 0 -- -- 100
2018-06-06 07:00:00 8.9 0 Calma 4 Este 0 -- -- 100
2018-06-06 06:00:00 9.1 3 Noroeste 4 Este 0 -- -- 100
2018-06-06 05:00:00 9.5 2 Sudeste 5 Este 0 -- -- 100
2018-06-06 04:00:00 10 3 Noroeste 6 Norte 0 -- -- 100
2018-06-06 03:00:00 10.2 3 Oeste 5 Noroeste 0 -- -- 100
2018-06-06 02:00:00 10.6 0 Calma 9 Noroeste 0 -- -- 99
2018-06-06 01:00:00 11.5 0 Calma 10 Noroeste 0 -- -- 97
2018-06-06 00:00:00 12.6 4 Noroeste 7 Noroeste 0 -- -- 97
2018-06-05 23:00:00 13 4 Noroeste 13 Noroeste 0 -- -- 95
2018-06-05 22:00:00 13.5 6 Noroeste 11 Norte 0 -- -- 94
2018-06-05 21:00:00 15.1 5 Norte 16 Norte 0 -- -- 86
2018-06-05 20:00:00 15.4 9 Noroeste 13 Noroeste 0 -- -- 88
2018-06-05 19:00:00 14.5 3 Noroeste 12 Noroeste 0.4 -- -- 94
2018-06-05 18:00:00 15.4 2 Oeste 18 Norte 0 -- -- 84
2018-06-05 17:00:00 16.7 8 Norte 28 Noroeste 0 -- -- 77
2018-06-05 16:00:00 18.9 11 Noroeste 22 Noroeste 0 -- -- 73
2018-06-05 15:00:00 17.3 9 Norte 15 Noroeste 0 -- -- 74
2018-06-05 14:00:00 15.8 2 Este 10 Noroeste 0 -- -- 85
2018-06-05 13:00:00 15.2 7 Norte 18 Noroeste 0 -- -- 86
2018-06-05 12:00:00 14.8 8 Oeste 18 Oeste 0 -- -- 94
2018-06-05 11:00:00 13.7 6 Noroeste 17 Noroeste 0.2 -- -- 98
2018-06-05 10:00:00 12.9 8 Noroeste 23 Oeste 0 -- -- 97
2018-06-05 09:00:00 13.2 9 Noroeste 25 Noroeste 1.6 -- -- 100
2018-06-05 08:00:00 13.2 2 Noroeste 10 Noroeste 0.2 -- -- 100
2018-06-05 07:00:00 13.1 5 Noroeste 10 Noroeste 0.6 -- -- 100
2018-06-05 06:00:00 13.2 0 Calma 5 Norte 1 -- -- 100
2018-06-05 05:00:00 13.2 0 Calma 5 Norte 0.2 -- -- 100
2018-06-05 04:00:00 13.2 0 Calma 5 Norte 0 -- -- 100
2018-06-05 03:00:00 13.1 3 Noroeste 4 Noroeste 0 -- -- 100
2018-06-05 02:00:00 13.3 3 Este 5 Este 0.2 -- -- 100
2018-06-05 01:00:00 13.4 0 Calma 8 Noroeste 0 -- -- 100
2018-06-05 00:00:00 13.6 3 Noroeste 21 Oeste 11 -- -- 99
2018-06-04 23:00:00 14.4 8 Noroeste 18 Norte 0.6 -- -- 94
2018-06-04 22:00:00 14.8 7 Norte 18 Norte 0 -- -- 91
2018-06-04 21:00:00 15.3 7 Norte 17 Norte 0 -- -- 91
2018-06-04 20:00:00 15.8 7 Norte 16 Norte 0 -- -- 90
2018-06-04 19:00:00 16.1 8 Norte 16 Norte 0 -- -- 90
2018-06-04 18:00:00 16 8 Norte 15 Norte 0.4 -- -- 91
2018-06-04 17:00:00 16.6 5 Noroeste 14 Norte 0 -- -- 87
2018-06-04 16:00:00 17 8 Norte 19 Noroeste 0 -- -- 85
2018-06-04 15:00:00 17.9 4 Oeste 14 Noroeste 0 -- -- 83
2018-06-04 14:00:00 17.1 9 Noroeste 17 Noroeste 0 -- -- 88
2018-06-04 13:00:00 17.2 7 Norte 19 Norte 0 -- -- 89
2018-06-04 12:00:00 17.3 3 Sudoeste 12 Sur 0.4 -- -- 93
2018-06-04 11:00:00 17.8 5 Sur 12 Sur 0 -- -- 90
2018-06-04 10:00:00 17 3 Noroeste 5 Norte 0 -- -- 94
2018-06-04 09:00:00 16 3 Sur 12 Noroeste 0 -- -- 97
2018-06-04 08:00:00 15.3 0 Calma 13 Noroeste 0 -- -- 99
2018-06-04 07:00:00 15.4 3 Norte 6 Norte 0 -- -- 100
2018-06-04 06:00:00 15.5 2 Norte 4 Noroeste 0 -- -- 100
2018-06-04 05:00:00 15.5 2 Norte 4 Noroeste 0 -- -- 100
2018-06-04 04:00:00 15.8 0 Calma 3 Norte 0 -- -- 100
2018-06-04 03:00:00 15.9 0 Calma 4 Sudeste 0 -- -- 100
2018-06-04 02:00:00 16 0 Calma 4 Oeste 0.2 -- -- 100
2018-06-04 01:00:00 16.1 0 Calma 4 Noroeste 0 -- -- 100
2018-06-04 00:00:00 16.1 0 Calma 4 Noroeste 0 -- -- 100
2018-06-03 23:00:00 16 2 Sudeste 6 Nordeste 0 -- -- 99
2018-06-03 22:00:00 16.4 2 Norte 6 Norte 0 -- -- 98
2018-06-03 21:00:00 17 5 Norte 9 Norte 0 -- -- 95
2018-06-03 20:00:00 17.3 2 Sudeste 6 Sudoeste 0 -- -- 96
2018-06-03 19:00:00 16.9 3 Sur 9 Norte 1.2 -- -- 97
2018-06-03 18:00:00 16.5 5 Noroeste 26 Norte 0.4 -- -- 95
2018-06-03 17:00:00 17.6 11 Norte 30 Norte 3 -- -- 94
2018-06-03 16:00:00 20.8 15 Norte 30 Norte 0 -- -- 79
2018-06-03 15:00:00 23.5 10 Norte 28 Norte 0 -- -- 69
2018-06-03 14:00:00 26.5 7 Sur 15 Sudeste 0 -- -- 46
2018-06-03 13:00:00 25.4 5 Sudoeste 19 Sudeste 0 -- -- 49
2018-06-03 12:00:00 24.2 5 Sudeste 19 Sur 0 -- -- 52
2018-06-03 11:00:00 23.3 6 Sudeste 15 Oeste 0 -- -- 63
2018-06-03 10:00:00 18.5 2 Norte 7 Sudeste 0 -- -- 84
2018-06-03 09:00:00 14.6 0 Calma 5 Noroeste 0 -- -- 100
2018-06-03 08:00:00 13.4 3 Noroeste 4 Noroeste 0 -- -- 100
2018-06-03 07:00:00 12.6 0 Calma 7 Sudeste 0 -- -- 100
2018-06-03 06:00:00 12.4 2 Sudeste 5 Sudeste 0 -- -- 100
2018-06-03 05:00:00 12.9 0 Calma 4 Norte 0 -- -- 99
2018-06-03 04:00:00 13.1 0 Calma 5 Noroeste 0 -- -- 99
2018-06-03 03:00:00 13.5 0 Calma 4 Noroeste 0 -- -- 98
2018-06-03 02:00:00 13.9 0 Calma 5 Noroeste 0 -- -- 96
2018-06-03 01:00:00 14.5 4 Norte 5 Nordeste 0 -- -- 94
2018-06-03 00:00:00 15.2 0 Calma 8 Norte 0 -- -- 91
2018-06-02 23:00:00 16.6 3 Norte 5 Norte 0 -- -- 85
2018-06-02 22:00:00 18.6 3 Este 9 Sudeste 0 -- -- 76
2018-06-02 21:00:00 20.9 4 Noroeste 23 Oeste 0 -- -- 64
2018-06-02 20:00:00 22.2 10 Norte 20 Noroeste 0 -- -- 76
2018-06-02 19:00:00 22.4 9 Norte 18 Norte 0 -- -- 76
2018-06-02 18:00:00 24.9 6 Norte 20 Norte 0 -- -- 68
2018-06-02 17:00:00 25.2 10 Nordeste 30 Nordeste 0 -- -- 64
2018-06-02 16:00:00 26.1 8 Sudoeste 17 Sudoeste 0 -- -- 58
2018-06-02 15:00:00 25.6 7 Noroeste 14 Noroeste 0 -- -- 66
2018-06-02 14:00:00 24.3 6 Sudeste 13 Sudeste 0 -- -- 62
2018-06-02 13:00:00 22.9 5 Sudoeste 10 Sudoeste 0 -- -- 65
2018-06-02 12:00:00 21.3 5 Sudoeste 11 Sudeste 0 -- -- 73
2018-06-02 11:00:00 20.1 5 Sur 10 Sur 0 -- -- 84
2018-06-02 10:00:00 17.2 2 Sur 6 Este 0 -- -- 94
2018-06-02 09:00:00 16.6 3 Sur 5 Sur 0 -- -- 100
2018-06-02 08:00:00 15.8 2 Noroeste 8 Noroeste 0 -- -- 100
2018-06-02 07:00:00 15.4 3 Norte 10 Norte 0 -- -- 100
2018-06-02 06:00:00 15.7 6 Noroeste 9 Noroeste 0.2 -- -- 100
2018-06-02 05:00:00 15.8 2 Norte 5 Sudeste 0 -- -- 100
2018-06-02 04:00:00 15.8 4 Sudeste 8 Noroeste 0 -- -- 100
2018-06-02 03:00:00 16.1 3 Norte 8 Nordeste 0 -- -- 100
2018-06-02 02:00:00 16.1 4 Norte 9 Norte 0 -- -- 100
2018-06-02 01:00:00 16 3 Norte 9 Noroeste 0 -- -- 100
2018-06-02 00:00:00 16.2 2 Norte 4 Nordeste 0 -- -- 99
2018-06-01 23:00:00 16.5 0 Calma 8 Sudeste 0.2 -- -- 99
2018-06-01 22:00:00 16.5 5 Noroeste 14 Norte 0.6 -- -- 97
2018-06-01 21:00:00 16.8 5 Noroeste 13 Noroeste 0 -- -- 95
2018-06-01 20:00:00 17.2 9 Norte 18 Norte 0 -- -- 92
2018-06-01 19:00:00 17.7 4 Noroeste 10 Norte 0.2 -- -- 92
2018-06-01 18:00:00 17.7 8 Norte 20 Norte 0 -- -- 90
2018-06-01 17:00:00 18 15 Norte 28 Noroeste 0 -- -- 87
2018-06-01 16:00:00 20.2 14 Norte 31 Norte 0 -- -- 80
2018-06-01 15:00:00 22.7 12 Norte 23 Norte 0 -- -- 73
2018-06-01 14:00:00 23.1 7 Noroeste 14 Noroeste 0 -- -- 71
2018-06-01 13:00:00 22.1 3 Sudoeste 9 Sudoeste 0 -- -- 74
2018-06-01 12:00:00 19.8 4 Sudoeste 8 Oeste 0 -- -- 81
2018-06-01 11:00:00 17.7 3 Sudoeste 6 Oeste 0 -- -- 84
2018-06-01 10:00:00 15.8 0 Calma 3 Sudoeste 0 -- -- 94
2018-06-01 09:00:00 15.1 0 Calma 4 Sudeste 0 -- -- 97
2018-06-01 08:00:00 14.7 0 Calma 3 Sur 0 -- -- 98
2018-06-01 07:00:00 14.7 0 Calma 4 Este 0 -- -- 98
2018-06-01 06:00:00 14.7 0 Calma 2 Sur 0 -- -- 97
2018-06-01 05:00:00 14.7 0 Calma 3 Sudeste 0 -- -- 96
2018-06-01 04:00:00 14.9 0 Calma 3 Nordeste 0 -- -- 95
2018-06-01 03:00:00 15 0 Calma 4 Este 0 -- -- 94
2018-06-01 02:00:00 15.1 0 Calma 6 Norte 0 -- -- 93
2018-06-01 01:00:00 15.3 3 Norte 12 Norte 0 -- -- 91
2018-06-01 00:00:00 15.4 0 Calma 11 Norte 0 -- -- 90
2018-05-31 23:00:00 15.5 6 Norte 11 Norte 0 -- -- 87
2018-05-31 22:00:00 15.8 5 Norte 14 Norte 0 -- -- 85
2018-05-31 21:00:00 16.3 7 Norte 15 Norte 0 -- -- 84
2018-05-31 20:00:00 16.7 9 Norte 20 Noroeste 0 -- -- 84
2018-05-31 19:00:00 17.4 12 Norte 22 Noroeste 0 -- -- 83
2018-05-31 18:00:00 19.2 12 Norte 20 Norte 0 -- -- 80
2018-05-31 17:00:00 20.1 5 Noroeste 18 Sur 0 -- -- 76
2018-05-31 16:00:00 19 6 Oeste 14 Sudoeste 0 -- -- 77
2018-05-31 15:00:00 17.5 3 Nordeste 11 Sudoeste 0 -- -- 85
2018-05-31 14:00:00 17 3 Sudoeste 6 Sudoeste 0.2 -- -- 91
2018-05-31 13:00:00 16.5 2 Oeste 5 Sur 0 -- -- 90
2018-05-31 12:00:00 15.6 2 Oeste 4 Noroeste 0 -- -- 94
2018-05-31 11:00:00 14.8 0 Calma 6 Este 0 -- -- 96
2018-05-31 10:00:00 14.3 2 Sudeste 4 Sudeste 0 -- -- 98
2018-05-31 09:00:00 13.9 0 Calma 3 Sur 0 -- -- 100
2018-05-31 08:00:00 13.7 0 Calma 3 Este 0 -- -- 100
2018-05-31 07:00:00 13.6 0 Calma 2 Norte 0.2 -- -- 100
2018-05-31 06:00:00 13.6 0 Calma 5 Este 0 -- -- 99
2018-05-31 05:00:00 13.6 0 Calma 3 Noroeste 0 -- -- 99
2018-05-31 04:00:00 13.6 0 Calma 4 Nordeste 0 -- -- 99
2018-05-31 03:00:00 13.6 0 Calma 3 Sudeste 0 -- -- 99
2018-05-31 02:00:00 13.7 2 Este 4 Noroeste 0 -- -- 98
2018-05-31 01:00:00 13.8 2 Este 6 Sudeste 0 -- -- 98
2018-05-31 00:00:00 14.3 0 Calma 8 Noroeste 0 -- -- 92
2018-05-30 23:00:00 15 3 Norte 21 Norte 0 -- -- 82
2018-05-30 22:00:00 15.4 8 Norte 16 Norte 0 -- -- 87
2018-05-30 21:00:00 16.2 4 Noroeste 9 Norte 0 -- -- 88
2018-05-30 20:00:00 16.8 4 Sudeste 10 Norte 0 -- -- 85
2018-05-30 19:00:00 17.2 3 Nordeste 16 Noroeste 0 -- -- 84
2018-05-30 18:00:00 17.2 9 Noroeste 19 Noroeste 0 -- -- 85
2018-05-30 17:00:00 16.2 9 Noroeste 21 Norte 0 -- -- 90
2018-05-30 16:00:00 17.2 8 Norte 28 Noroeste 0 -- -- 83
2018-05-30 15:00:00 19 6 Norte 17 Norte 0 -- -- 78
2018-05-30 14:00:00 19.3 3 Norte 10 Noroeste 0 -- -- 77
2018-05-30 13:00:00 19.4 6 Sudoeste 10 Sudoeste 0 -- -- 76
2018-05-30 12:00:00 17 4 Sudeste 8 Sudeste 0 -- -- 87
2018-05-30 11:00:00 15.5 2 Este 5 Este 0 -- -- 92
2018-05-30 10:00:00 14.7 0 Calma 4 Sur 0.2 -- -- 98
2018-05-30 09:00:00 14 0 Calma 2 Sudeste 0.4 -- -- 100
2018-05-30 08:00:00 13.6 0 Calma 5 Sudeste 0 -- -- 100
2018-05-30 07:00:00 13.6 0 Calma 3 Sudeste 0 -- -- 100
2018-05-30 06:00:00 13.6 0 Calma 2 Noroeste 0 -- -- 100
2018-05-30 05:00:00 13.6 0 Calma 4 Este 0 -- -- 100
2018-05-30 04:00:00 13.6 3 Noroeste 5 Sudeste 0 -- -- 100
2018-05-30 03:00:00 13.6 0 Calma 3 Noroeste 0 -- -- 100
2018-05-30 02:00:00 13.6 0 Calma 3 Noroeste 0 -- -- 100
2018-05-30 01:00:00 14 3 Noroeste 4 Noroeste 0.2 -- -- 100
2018-05-30 00:00:00 14.4 2 Norte 5 Norte 0 -- -- 100
2018-05-29 23:00:00 14.5 0 Calma 4 Noroeste 0 -- -- 99
2018-05-29 22:00:00 14.6 3 Noroeste 7 Norte 0 -- -- 99
2018-05-29 21:00:00 15 0 Calma 11 Norte 0 -- -- 97
2018-05-29 20:00:00 15.1 3 Noroeste 15 Noroeste 0 -- -- 96
2018-05-29 19:00:00 15.9 3 Oeste 15 Norte 2 -- -- 97
2018-05-29 18:00:00 15.3 8 Norte 21 Norte 3 -- -- 96
2018-05-29 17:00:00 17.5 11 Norte 26 Norte 0 -- -- 83
2018-05-29 16:00:00 19.7 12 Norte 26 Noroeste 0 -- -- 77
2018-05-29 15:00:00 21.4 12 Noroeste 23 Noroeste 0 -- -- 70
2018-05-29 14:00:00 19.4 9 Norte 13 Norte 0 -- -- 76
2018-05-29 13:00:00 19.7 3 Sur 10 Sudeste 0 -- -- 73
2018-05-29 12:00:00 19.2 3 Oeste 10 Sudoeste 0 -- -- 77
2018-05-29 11:00:00 17.4 2 Sudoeste 6 Norte 0 -- -- 84
2018-05-29 10:00:00 15.8 0 Calma 4 Este 0 -- -- 93
2018-05-29 09:00:00 13.6 2 Sur 6 Sudeste 0 -- -- 100
2018-05-29 08:00:00 12.9 3 Sudeste 8 Noroeste 0 -- -- 100
2018-05-29 07:00:00 12.7 3 Norte 5 Norte 0 -- -- 100
2018-05-29 06:00:00 12.9 0 Calma 4 Sur 0 -- -- 100
2018-05-29 05:00:00 12.9 0 Calma 3 Noroeste 0 -- -- 100
2018-05-29 04:00:00 12.8 2 Norte 4 Noroeste 0 -- -- 100
2018-05-29 03:00:00 13.1 0 Calma 2 Noroeste 0.2 -- -- 100
2018-05-29 02:00:00 13.2 0 Calma 2 Noroeste 0 -- -- 100
2018-05-29 01:00:00 13.3 2 Noroeste 4 Noroeste 0 -- -- 100
2018-05-29 00:00:00 13.4 0 Calma 4 Noroeste 0 -- -- 100
2018-05-28 23:00:00 13.5 4 Noroeste 6 Noroeste 0 -- -- 100
2018-05-28 22:00:00 13.7 0 Calma 3 Sudeste 0.2 -- -- 100
2018-05-28 21:00:00 13.8 0 Calma 6 Este 0.4 -- -- 100
2018-05-28 20:00:00 13.9 3 Sudeste 5 Sudeste 0.6 -- -- 99
2018-05-28 19:00:00 14.1 4 Sudeste 6 Sudeste 0.4 -- -- 97
2018-05-28 18:00:00 15.1 0 Calma 10 Norte 0 -- -- 92
2018-05-28 17:00:00 15.1 6 Noroeste 12 Noroeste 0 -- -- 87
2018-05-28 16:00:00 14.8 3 Norte 17 Norte 0 -- -- 91
2018-05-28 15:00:00 15.2 2 Nordeste 12 Noroeste 0 -- -- 94
2018-05-28 14:00:00 14.8 2 Sur 8 Este 0 -- -- 95
2018-05-28 13:00:00 14.3 0 Calma 9 Sudeste 0 -- -- 99
2018-05-28 12:00:00 14.2 5 Sudeste 9 Sudeste 0.2 -- -- 98
2018-05-28 11:00:00 14.2 0 Calma 3 Sudeste 0 -- -- 100
2018-05-28 10:00:00 13.6 0 Calma 12 Noroeste 0.8 -- -- 100
2018-05-28 09:00:00 13.3 5 Noroeste 8 Norte 0.4 -- -- 100
2018-05-28 08:00:00 13.3 0 Calma 5 Noroeste 0.2 -- -- 100
2018-05-28 07:00:00 13.3 3 Noroeste 12 Nordeste 0 -- -- 100
2018-05-28 06:00:00 13.4 0 Calma 5 Norte 0.8 -- -- 100
2018-05-28 05:00:00 13.5 4 Sudeste 5 Este 0.2 -- -- 100
2018-05-28 04:00:00 13.6 2 Norte 5 Norte 0.2 -- -- 99
2018-05-28 03:00:00 13.8 0 Calma 6 Norte 0.2 -- -- 96
2018-05-28 02:00:00 14 4 Norte 8 Oeste 0 -- -- 95
2018-05-28 01:00:00 14.4 5 Noroeste 13 Norte 0 -- -- 97
2018-05-28 00:00:00 14.7 0 Calma 5 Sudeste 0 -- -- 99
2018-05-27 23:00:00 15 3 Sudeste 7 Sudeste 0 -- -- 96
2018-05-27 22:00:00 15 3 Norte 12 Noroeste 0 -- -- 93
2018-05-27 21:00:00 15.2 8 Noroeste 15 Noroeste 0 -- -- 93
2018-05-27 20:00:00 15.9 9 Norte 19 Noroeste 0 -- -- 92
2018-05-27 19:00:00 16.6 8 Norte 14 Norte 0 -- -- 89
2018-05-27 18:00:00 17.1 4 Norte 14 Norte 0 -- -- 87
2018-05-27 17:00:00 16.9 7 Norte 21 Norte 0 -- -- 87
2018-05-27 16:00:00 16.7 10 Norte 18 Norte 0 -- -- 89
2018-05-27 15:00:00 16.3 8 Norte 18 Norte 0 -- -- 93
2018-05-27 14:00:00 16.7 8 Norte 16 Norte 0 -- -- 90
2018-05-27 13:00:00 16.9 2 Sudoeste 6 Sudoeste 0 -- -- 90
2018-05-27 12:00:00 16.1 2 Oeste 5 Noroeste 0 -- -- 91
2018-05-27 11:00:00 15.4 0 Calma 5 Sur 0 -- -- 93
2018-05-27 10:00:00 14.6 0 Calma 3 Sudeste 0 -- -- 97
2018-05-27 09:00:00 13.8 0 Calma 4 Sudeste 0 -- -- 100
2018-05-27 08:00:00 13.3 3 Sudeste 6 Sudeste 0 -- -- 100
2018-05-27 07:00:00 13 0 Calma 4 Sudeste 0 -- -- 100
2018-05-27 06:00:00 12.7 0 Calma 3 Noroeste 0 -- -- 100
2018-05-27 05:00:00 12.5 2 Noroeste 4 Noroeste 0 -- -- 100
2018-05-27 04:00:00 12.3 0 Calma 5 Noroeste 0 -- -- 100
2018-05-27 03:00:00 12.4 0 Calma 3 Sudeste 0 -- -- 100
2018-05-27 02:00:00 12.2 0 Calma 6 Este 0 -- -- 100
2018-05-27 01:00:00 12.9 0 Calma 4 Norte 0 -- -- 98
2018-05-27 00:00:00 13.6 3 Noroeste 10 Sudeste 0 -- -- 98
2018-05-26 23:00:00 14.1 3 Noroeste 10 Norte 0 -- -- 97
2018-05-26 22:00:00 15.1 0 Calma 7 Noroeste 0 -- -- 96
2018-05-26 21:00:00 16.5 4 Noroeste 8 Norte 0 -- -- 93
2018-05-26 20:00:00 17.2 3 Norte 8 Noroeste 0 -- -- 92
2018-05-26 19:00:00 16.9 3 Este 13 Nordeste 0 -- -- 89
2018-05-26 18:00:00 16.7 2 Norte 14 Norte 0 -- -- 89
2018-05-26 17:00:00 17.2 6 Noroeste 27 Noroeste 2 -- -- 84
2018-05-26 16:00:00 20 6 Norte 32 Oeste 0 -- -- 57
2018-05-26 15:00:00 22.2 3 Sudeste 12 Este 0 -- -- 63
2018-05-26 14:00:00 19.7 5 Noroeste 11 Sur 0 -- -- 84
2018-05-26 13:00:00 16.5 3 Sudoeste 6 Sudeste 0 -- -- 100
2018-05-26 12:00:00 14.5 2 Este 13 Nordeste 0.2 -- -- 100
2018-05-26 11:00:00 14.8 4 Sur 18 Norte 3.2 -- -- 97
2018-05-26 10:00:00 15.3 0 Calma 5 Sur 0 -- -- 100
2018-05-26 09:00:00 15.2 0 Calma 8 Noroeste 0.6 -- -- 100
2018-05-26 08:00:00 14.3 3 Este 7 Sudeste 0.2 -- -- 100
2018-05-26 07:00:00 14.1 0 Calma 6 Sudoeste 0 -- -- 100
2018-05-26 06:00:00 14 2 Noroeste 12 Norte 0 -- -- 100
2018-05-26 05:00:00 14 4 Noroeste 9 Noroeste 0 -- -- 100
2018-05-26 04:00:00 14.7 0 Calma 6 Norte 0 -- -- 100
2018-05-26 03:00:00 14.9 2 Este 4 Este 0.4 -- -- 100
2018-05-26 02:00:00 14.9 0 Calma 6 Sur 2.8 -- -- 100
2018-05-26 01:00:00 15 3 Oeste 13 Norte 8.2 -- -- 100
2018-05-26 00:00:00 15.4 0 Calma 14 Norte 1.4 -- -- 97
2018-05-25 23:00:00 15.9 5 Noroeste 13 Norte 0 -- -- 93
2018-05-25 22:00:00 16.5 4 Noroeste 14 Norte 0 -- -- 90
2018-05-25 21:00:00 17.1 6 Norte 13 Noroeste 0 -- -- 86
2018-05-25 20:00:00 17.3 5 Noroeste 10 Noroeste 0 -- -- 85
2018-05-25 19:00:00 17.3 6 Norte 18 Norte 0 -- -- 88
2018-05-25 18:00:00 17.3 12 Norte 20 Norte 0.2 -- -- 87
2018-05-25 17:00:00 18.8 10 Norte 21 Norte 0 -- -- 81
2018-05-25 16:00:00 21.2 4 Noroeste 14 Sur 0 -- -- 72
2018-05-25 15:00:00 20.9 4 Sur 12 Sudoeste 0 -- -- 69
2018-05-25 14:00:00 19 4 Sudeste 14 Noroeste 0 -- -- 82
2018-05-25 13:00:00 16.7 8 Noroeste 13 Noroeste 0 -- -- 94
2018-05-25 12:00:00 15.5 6 Norte 18 Nordeste 1 -- -- 95
2018-05-25 11:00:00 17.3 5 Sudeste 13 Sudeste 0 -- -- 89
2018-05-25 10:00:00 16.9 3 Noroeste 9 Sur 0 -- -- 96
2018-05-25 09:00:00 15.7 3 Sur 9 Este 0 -- -- 100
2018-05-25 08:00:00 15.2 0 Calma 6 Este 0 -- -- 100
2018-05-25 07:00:00 15 2 Sur 12 Noroeste 0 -- -- 100
2018-05-25 06:00:00 15.1 2 Sudeste 6 Sudeste 0 -- -- 100
2018-05-25 05:00:00 15.1 0 Calma 8 Sudeste 0 -- -- 100
2018-05-25 04:00:00 15.3 2 Norte 17 Noroeste 0 -- -- 100
2018-05-25 03:00:00 15.2 0 Calma 3 Noroeste 0 -- -- 100
2018-05-25 02:00:00 15.1 0 Calma 5 Sudeste 0 -- -- 100
2018-05-25 01:00:00 15.1 0 Calma 5 Este 0 -- -- 100
2018-05-25 00:00:00 14.8 2 Noroeste 6 Norte 0 -- -- 99
2018-05-24 23:00:00 15.3 4 Este 12 Norte 0 -- -- 99
2018-05-24 22:00:00 15.8 3 Norte 12 Noroeste 0 -- -- 98
2018-05-24 21:00:00 16.3 2 Sudeste 17 Norte 0 -- -- 97
2018-05-24 20:00:00 16.7 0 Calma 12 Este 0.6 -- -- 94
2018-05-24 19:00:00 17.4 5 Este 31 Sur 3.6 -- -- 88
2018-05-24 18:00:00 20.2 9 Norte 19 Norte 0 -- -- 81
2018-05-24 17:00:00 22.5 9 Norte 27 Norte 0 -- -- 72
2018-05-24 16:00:00 25.8 7 Norte 15 Norte 0 -- -- 53
2018-05-24 15:00:00 26.1 3 Noroeste 18 Este 0 -- -- 47
2018-05-24 14:00:00 25.7 3 Oeste 17 Este 0 -- -- 50
2018-05-24 13:00:00 25 7 Sur 21 Sudeste 0 -- -- 58
2018-05-24 12:00:00 22.7 8 Sur 23 Sudeste 0 -- -- 65
2018-05-24 11:00:00 21.5 5 Este 12 Este 0 -- -- 71
2018-05-24 10:00:00 19.1 0 Calma 5 Sudeste 0 -- -- 86
2018-05-24 09:00:00 15.7 0 Calma 5 Sudeste 0 -- -- 100
2018-05-24 08:00:00 14.3 0 Calma 5 Sudeste 0 -- -- 100
2018-05-24 07:00:00 14 3 Noroeste 8 Este 0 -- -- 100
2018-05-24 06:00:00 14.2 3 Norte 15 Oeste 0 -- -- 100
2018-05-24 05:00:00 14.3 0 Calma 6 Noroeste 0 -- -- 100
2018-05-24 04:00:00 14.5 3 Norte 5 Norte 0 -- -- 100
2018-05-24 03:00:00 14.7 2 Sudeste 4 Este 0.2 -- -- 100
2018-05-24 02:00:00 14.6 0 Calma 5 Noroeste 0.6 -- -- 99
2018-05-24 01:00:00 14.7 3 Norte 4 Norte 0 -- -- 99
2018-05-24 00:00:00 14.9 0 Calma 9 Noroeste 0 -- -- 99
2018-05-23 23:00:00 15.3 0 Calma 4 Noroeste 0 -- -- 98
2018-05-23 22:00:00 15.9 0 Calma 6 Norte 0 -- -- 96
2018-05-23 21:00:00 16.6 2 Noroeste 4 Noroeste 0 -- -- 94
2018-05-23 20:00:00 17.6 3 Noroeste 6 Noroeste 0 -- -- 92
2018-05-23 19:00:00 18.3 0 Calma 4 Sudoeste 0 -- -- 82
2018-05-23 18:00:00 17.7 0 Calma 12 Sur 0 -- -- 92
2018-05-23 17:00:00 17.7 0 Calma 9 Norte 0.4 -- -- 90
2018-05-23 16:00:00 16.9 0 Calma 5 Sudoeste 0.8 -- -- 93
2018-05-23 15:00:00 16.8 0 Calma 4 Este 1 -- -- 92
2018-05-23 14:00:00 17.2 3 Este 5 Este 0.4 -- -- 86
2018-05-23 13:00:00 17.9 0 Calma 6 Sudoeste 0 -- -- 72
2018-05-23 12:00:00 17.6 2 Sur 7 Sur 0 -- -- 75
2018-05-23 11:00:00 16.1 3 Sur 6 Sur 0 -- -- 78
2018-05-23 10:00:00 13.9 4 Sudeste 6 Sudeste 0 -- -- 86
2018-05-23 09:00:00 11.4 2 Sur 5 Este 0 -- -- 98
2018-05-23 08:00:00 9.7 2 Norte 5 Norte 0 -- -- 100
2018-05-23 07:00:00 9.4 0 Calma 8 Sudeste 0 -- -- 100
2018-05-23 06:00:00 9.1 2 Nordeste 4 Sudeste 0 -- -- 99
2018-05-23 05:00:00 9.2 0 Calma 4 Sudeste 0 -- -- 98
2018-05-23 04:00:00 9.7 0 Calma 3 Este 0 -- -- 98
2018-05-23 03:00:00 10.2 3 Sudeste 5 Sudeste 0 -- -- 97
2018-05-23 02:00:00 10.9 2 Norte 3 Norte 0 -- -- 95
2018-05-23 01:00:00 11.5 2 Noroeste 4 Noroeste 0 -- -- 93
2018-05-23 00:00:00 12.5 0 Calma 6 Norte 0 -- -- 89
2018-05-22 23:00:00 13.7 3 Noroeste 12 Noroeste 0 -- -- 84
2018-05-22 22:00:00 15.4 6 Noroeste 14 Nordeste 0 -- -- 78
2018-05-22 21:00:00 18.5 5 Norte 17 Noroeste 0 -- -- 63
2018-05-22 20:00:00 21.7 9 Noroeste 22 Nordeste 0 -- -- 54
2018-05-22 19:00:00 22.8 6 Noroeste 26 Noroeste 0 -- -- 50
2018-05-22 18:00:00 23.1 12 Norte 27 Noroeste 0 -- -- 48
2018-05-22 17:00:00 23.3 9 Norte 24 Norte 0 -- -- 50
2018-05-22 16:00:00 23.3 13 Noroeste 26 Noroeste 0 -- -- 49
2018-05-22 15:00:00 22.7 12 Norte 23 Norte 0 -- -- 54
2018-05-22 14:00:00 22.9 9 Norte 18 Norte 0 -- -- 53
2018-05-22 13:00:00 22.5 7 Noroeste 15 Noroeste 0 -- -- 51
2018-05-22 12:00:00 21 4 Sudoeste 15 Sudeste 0 -- -- 62
2018-05-22 11:00:00 18.7 4 Sudeste 10 Sudeste 0 -- -- 71
2018-05-22 10:00:00 15.4 4 Sudeste 8 Sudeste 0 -- -- 89
2018-05-22 09:00:00 11.3 0 Calma 5 Sudeste 0 -- -- 100
2018-05-22 08:00:00 10.6 0 Calma 4 Sudeste 0 -- -- 100
2018-05-22 07:00:00 10.4 0 Calma 6 Sudeste 0 -- -- 100
2018-05-22 06:00:00 10.5 3 Sudeste 5 Este 0 -- -- 100
2018-05-22 05:00:00 11.1 2 Norte 5 Sudeste 0 -- -- 99
2018-05-22 04:00:00 11.9 0 Calma 5 Sudeste 0 -- -- 98
2018-05-22 03:00:00 12.6 2 Noroeste 5 Norte 0 -- -- 97
2018-05-22 02:00:00 13.4 0 Calma 4 Sudeste 0 -- -- 97
2018-05-22 01:00:00 13.4 2 Sudeste 5 Sur 0 -- -- 97
2018-05-22 00:00:00 13.4 3 Norte 4 Norte 0 -- -- 97